sensor_id;sensor_type;location;lat;lon;timestamp;pressure;altitude;pressure_sealevel;temperature;humidity
8334;BME280;4204;43.004;23.052;2023-11-18T00:00:08;93094.53;;;6.89;100.00
8334;BME280;4204;43.004;23.052;2023-11-18T00:02:38;93089.22;;;6.81;100.00
8334;BME280;4204;43.004;23.052;2023-11-18T00:05:09;93085.47;;;6.73;100.00
8334;BME280;4204;43.004;23.052;2023-11-18T00:07:38;93097.66;;;6.83;100.00
8334;BME280;4204;43.004;23.052;2023-11-18T00:10:07;93088.44;;;6.72;100.00
8334;BME280;4204;43.004;23.052;2023-11-18T00:12:34;93087.44;;;6.59;100.00
8334;BME280;4204;43.004;23.052;2023-11-18T00:15:03;93091.31;;;6.53;100.00
8334;BME280;4204;43.004;23.052;2023-11-18T00:17:31;93090.41;;;6.58;100.00
8334;BME280;4204;43.004;23.052;2023-11-18T00:19:59;93099.75;;;6.64;100.00
8334;BME280;4204;43.004;23.052;2023-11-18T00:22:29;93103.47;;;6.63;100.00
8334;BME280;4204;43.004;23.052;2023-11-18T00:24:58;93096.19;;;6.68;100.00
8334;BME280;4204;43.004;23.052;2023-11-18T00:27:26;93094.25;;;6.51;100.00
8334;BME280;4204;43.004;23.052;2023-11-18T00:29:54;93078.25;;;6.57;100.00
8334;BME280;4204;43.004;23.052;2023-11-18T00:32:21;93086.19;;;6.57;100.00
8334;BME280;4204;43.004;23.052;2023-11-18T00:34:49;93083.34;;;6.44;100.00
8334;BME280;4204;43.004;23.052;2023-11-18T00:37:19;93074.81;;;6.47;100.00
8334;BME280;4204;43.004;23.052;2023-11-18T00:39:46;93052.13;;;6.46;100.00
8334;BME280;4204;43.004;23.052;2023-11-18T00:42:15;93049.16;;;6.48;100.00
8334;BME280;4204;43.004;23.052;2023-11-18T00:44:43;93043.38;;;6.37;100.00
8334;BME280;4204;43.004;23.052;2023-11-18T00:47:11;93068.72;;;6.38;100.00
8334;BME280;4204;43.004;23.052;2023-11-18T00:49:39;93068.09;;;6.33;100.00
8334;BME280;4204;43.004;23.052;2023-11-18T00:52:07;93059.84;;;6.34;100.00
8334;BME280;4204;43.004;23.052;2023-11-18T00:54:35;93074.88;;;6.25;100.00
8334;BME280;4204;43.004;23.052;2023-11-18T00:57:03;93091.03;;;6.24;100.00
8334;BME280;4204;43.004;23.052;2023-11-18T00:59:32;93102.69;;;6.31;100.00
8334;BME280;4204;43.004;23.052;2023-11-18T01:02:01;93103.00;;;6.30;100.00
8334;BME280;4204;43.004;23.052;2023-11-18T01:04:30;93106.28;;;6.35;100.00
8334;BME280;4204;43.004;23.052;2023-11-18T01:06:59;93115.63;;;6.41;100.00
8334;BME280;4204;43.004;23.052;2023-11-18T01:09:27;93117.94;;;6.34;100.00
8334;BME280;4204;43.004;23.052;2023-11-18T01:11:54;93118.44;;;6.36;100.00
8334;BME280;4204;43.004;23.052;2023-11-18T01:14:22;93116.31;;;6.47;100.00
8334;BME280;4204;43.004;23.052;2023-11-18T01:16:51;93116.16;;;6.52;100.00
8334;BME280;4204;43.004;23.052;2023-11-18T01:19:19;93120.91;;;6.41;100.00
8334;BME280;4204;43.004;23.052;2023-11-18T01:21:47;93119.69;;;6.39;100.00
8334;BME280;4204;43.004;23.052;2023-11-18T01:24:15;93125.03;;;6.25;100.00
8334;BME280;4204;43.004;23.052;2023-11-18T01:26:43;93131.34;;;6.16;100.00
8334;BME280;4204;43.004;23.052;2023-11-18T01:29:11;93132.47;;;6.23;100.00
8334;BME280;4204;43.004;23.052;2023-11-18T01:31:39;93128.56;;;6.12;100.00
8334;BME280;4204;43.004;23.052;2023-11-18T01:34:09;93138.25;;;6.25;100.00
8334;BME280;4204;43.004;23.052;2023-11-18T01:36:38;93141.75;;;6.12;100.00
8334;BME280;4204;43.004;23.052;2023-11-18T01:39:06;93137.22;;;6.13;100.00
8334;BME280;4204;43.004;23.052;2023-11-18T01:41:34;93138.16;;;6.08;100.00
8334;BME280;4204;43.004;23.052;2023-11-18T01:44:02;93149.94;;;6.11;100.00
8334;BME280;4204;43.004;23.052;2023-11-18T01:46:30;93150.25;;;6.09;100.00
8334;BME280;4204;43.004;23.052;2023-11-18T01:48:58;93146.44;;;5.93;100.00
8334;BME280;4204;43.004;23.052;2023-11-18T01:51:27;93165.63;;;5.85;100.00
8334;BME280;4204;43.004;23.052;2023-11-18T01:53:56;93159.44;;;5.76;100.00
8334;BME280;4204;43.004;23.052;2023-11-18T01:56:27;93161.03;;;5.77;100.00
8334;BME280;4204;43.004;23.052;2023-11-18T01:58:55;93152.50;;;5.80;100.00
8334;BME280;4204;43.004;23.052;2023-11-18T02:01:26;93158.75;;;5.84;100.00
8334;BME280;4204;43.004;23.052;2023-11-18T02:03:55;93161.50;;;5.79;100.00
8334;BME280;4204;43.004;23.052;2023-11-18T02:06:22;93152.97;;;5.82;100.00
8334;BME280;4204;43.004;23.052;2023-11-18T02:08:52;93149.78;;;5.85;100.00
8334;BME280;4204;43.004;23.052;2023-11-18T02:11:28;93163.53;;;5.96;100.00
8334;BME280;4204;43.004;23.052;2023-11-18T02:13:58;93169.09;;;5.94;100.00
8334;BME280;4204;43.004;23.052;2023-11-18T02:16:29;93162.00;;;5.81;100.00
8334;BME280;4204;43.004;23.052;2023-11-18T02:18:58;93143.84;;;6.02;100.00
8334;BME280;4204;43.004;23.052;2023-11-18T02:21:27;93158.41;;;6.21;100.00
8334;BME280;4204;43.004;23.052;2023-11-18T02:23:57;93150.72;;;6.11;100.00
8334;BME280;4204;43.004;23.052;2023-11-18T02:26:26;93170.47;;;5.78;100.00
8334;BME280;4204;43.004;23.052;2023-11-18T02:28:54;93169.28;;;5.62;100.00
8334;BME280;4204;43.004;23.052;2023-11-18T02:31:27;93167.81;;;5.56;100.00
8334;BME280;4204;43.004;23.052;2023-11-18T02:34:02;93175.00;;;5.42;100.00
8334;BME280;4204;43.004;23.052;2023-11-18T02:36:36;93170.69;;;5.32;100.00
8334;BME280;4204;43.004;23.052;2023-11-18T02:39:11;93175.38;;;5.22;100.00
8334;BME280;4204;43.004;23.052;2023-11-18T02:41:51;93175.81;;;5.15;100.00
8334;BME280;4204;43.004;23.052;2023-11-18T02:44:21;93165.75;;;5.04;100.00
8334;BME280;4204;43.004;23.052;2023-11-18T02:46:51;93173.06;;;4.93;100.00
8334;BME280;4204;43.004;23.052;2023-11-18T02:49:19;93168.59;;;4.93;100.00
8334;BME280;4204;43.004;23.052;2023-11-18T02:51:47;93169.34;;;4.80;100.00
8334;BME280;4204;43.004;23.052;2023-11-18T02:54:15;93173.28;;;4.83;100.00
8334;BME280;4204;43.004;23.052;2023-11-18T02:56:43;93175.59;;;4.71;100.00
8334;BME280;4204;43.004;23.052;2023-11-18T02:59:12;93180.09;;;4.70;100.00
8334;BME280;4204;43.004;23.052;2023-11-18T03:01:39;93182.16;;;4.73;100.00
8334;BME280;4204;43.004;23.052;2023-11-18T03:04:07;93176.78;;;4.65;100.00
8334;BME280;4204;43.004;23.052;2023-11-18T03:06:36;93185.97;;;4.67;100.00
8334;BME280;4204;43.004;23.052;2023-11-18T03:09:04;93179.22;;;4.61;100.00
8334;BME280;4204;43.004;23.052;2023-11-18T03:11:34;93175.38;;;4.54;100.00
8334;BME280;4204;43.004;23.052;2023-11-18T03:14:01;93178.69;;;4.59;100.00
8334;BME280;4204;43.004;23.052;2023-11-18T03:16:32;93181.25;;;4.64;100.00
8334;BME280;4204;43.004;23.052;2023-11-18T03:19:00;93190.50;;;4.48;100.00
8334;BME280;4204;43.004;23.052;2023-11-18T03:21:27;93193.81;;;4.40;100.00
8334;BME280;4204;43.004;23.052;2023-11-18T03:23:55;93197.97;;;4.41;100.00
8334;BME280;4204;43.004;23.052;2023-11-18T03:26:24;93200.84;;;4.45;100.00
8334;BME280;4204;43.004;23.052;2023-11-18T03:28:52;93196.63;;;4.30;100.00
8334;BME280;4204;43.004;23.052;2023-11-18T03:31:20;93199.72;;;4.32;100.00
8334;BME280;4204;43.004;23.052;2023-11-18T03:33:49;93179.94;;;4.35;100.00
8334;BME280;4204;43.004;23.052;2023-11-18T03:36:18;93189.97;;;4.33;100.00
8334;BME280;4204;43.004;23.052;2023-11-18T03:38:45;93194.38;;;4.37;100.00
8334;BME280;4204;43.004;23.052;2023-11-18T03:41:15;93191.63;;;4.29;100.00
8334;BME280;4204;43.004;23.052;2023-11-18T03:43:42;93200.97;;;4.21;100.00
8334;BME280;4204;43.004;23.052;2023-11-18T03:46:11;93195.28;;;4.14;100.00
8334;BME280;4204;43.004;23.052;2023-11-18T03:48:39;93202.19;;;4.10;100.00
8334;BME280;4204;43.004;23.052;2023-11-18T03:51:08;93204.16;;;4.18;100.00
8334;BME280;4204;43.004;23.052;2023-11-18T03:53:36;93198.44;;;3.97;100.00
8334;BME280;4204;43.004;23.052;2023-11-18T03:56:04;93196.06;;;4.15;100.00
8334;BME280;4204;43.004;23.052;2023-11-18T03:58:32;93197.81;;;4.05;100.00
8334;BME280;4204;43.004;23.052;2023-11-18T04:01:00;93208.69;;;3.99;100.00
8334;BME280;4204;43.004;23.052;2023-11-18T04:03:28;93200.38;;;3.92;100.00
8334;BME280;4204;43.004;23.052;2023-11-18T04:05:56;93195.31;;;3.95;100.00
8334;BME280;4204;43.004;23.052;2023-11-18T04:08:25;93198.16;;;3.99;100.00
8334;BME280;4204;43.004;23.052;2023-11-18T04:10:53;93196.38;;;3.94;100.00
8334;BME280;4204;43.004;23.052;2023-11-18T04:13:21;93212.47;;;3.93;100.00
8334;BME280;4204;43.004;23.052;2023-11-18T04:15:48;93211.38;;;3.94;100.00
8334;BME280;4204;43.004;23.052;2023-11-18T04:18:16;93204.13;;;4.04;100.00
8334;BME280;4204;43.004;23.052;2023-11-18T04:20:44;93214.66;;;4.04;100.00
8334;BME280;4204;43.004;23.052;2023-11-18T04:23:11;93201.56;;;3.99;100.00
8334;BME280;4204;43.004;23.052;2023-11-18T04:25:42;93208.41;;;4.00;100.00
8334;BME280;4204;43.004;23.052;2023-11-18T04:28:09;93194.31;;;3.91;100.00
8334;BME280;4204;43.004;23.052;2023-11-18T04:30:37;93189.06;;;3.91;100.00
8334;BME280;4204;43.004;23.052;2023-11-18T04:33:05;93189.50;;;3.98;100.00
8334;BME280;4204;43.004;23.052;2023-11-18T04:35:33;93193.19;;;3.79;100.00
8334;BME280;4204;43.004;23.052;2023-11-18T04:38:00;93173.22;;;3.78;100.00
8334;BME280;4204;43.004;23.052;2023-11-18T04:40:28;93178.19;;;3.79;100.00
8334;BME280;4204;43.004;23.052;2023-11-18T04:42:58;93182.13;;;3.82;100.00
8334;BME280;4204;43.004;23.052;2023-11-18T04:45:26;93178.63;;;3.86;100.00
8334;BME280;4204;43.004;23.052;2023-11-18T04:47:54;93172.09;;;3.84;100.00
8334;BME280;4204;43.004;23.052;2023-11-18T04:50:22;93179.97;;;3.84;100.00
8334;BME280;4204;43.004;23.052;2023-11-18T04:52:50;93184.31;;;3.75;100.00
8334;BME280;4204;43.004;23.052;2023-11-18T04:55:17;93184.81;;;3.77;100.00
8334;BME280;4204;43.004;23.052;2023-11-18T04:57:45;93186.31;;;3.64;100.00
8334;BME280;4204;43.004;23.052;2023-11-18T05:00:15;93189.00;;;3.78;100.00
8334;BME280;4204;43.004;23.052;2023-11-18T05:02:43;93185.88;;;3.76;100.00
8334;BME280;4204;43.004;23.052;2023-11-18T05:05:13;93173.78;;;3.75;100.00
8334;BME280;4204;43.004;23.052;2023-11-18T05:07:42;93174.44;;;3.67;100.00
8334;BME280;4204;43.004;23.052;2023-11-18T05:10:10;93180.06;;;3.60;100.00
8334;BME280;4204;43.004;23.052;2023-11-18T05:12:38;93172.81;;;3.52;100.00
8334;BME280;4204;43.004;23.052;2023-11-18T05:15:07;93162.09;;;3.49;100.00
8334;BME280;4204;43.004;23.052;2023-11-18T05:17:37;93158.63;;;3.53;100.00
8334;BME280;4204;43.004;23.052;2023-11-18T05:20:06;93156.53;;;3.50;100.00
8334;BME280;4204;43.004;23.052;2023-11-18T05:22:35;93160.66;;;3.56;100.00
8334;BME280;4204;43.004;23.052;2023-11-18T05:25:04;93170.91;;;3.58;100.00
8334;BME280;4204;43.004;23.052;2023-11-18T05:27:33;93170.81;;;3.44;100.00
8334;BME280;4204;43.004;23.052;2023-11-18T05:30:01;93173.94;;;3.46;100.00
8334;BME280;4204;43.004;23.052;2023-11-18T05:32:29;93173.25;;;3.41;100.00
8334;BME280;4204;43.004;23.052;2023-11-18T05:34:58;93179.84;;;3.57;100.00
8334;BME280;4204;43.004;23.052;2023-11-18T05:37:26;93171.47;;;3.36;100.00
8334;BME280;4204;43.004;23.052;2023-11-18T05:39:55;93187.94;;;3.42;100.00
8334;BME280;4204;43.004;23.052;2023-11-18T05:42:32;93187.38;;;3.45;100.00
8334;BME280;4204;43.004;23.052;2023-11-18T05:45:03;93191.22;;;3.52;100.00
8334;BME280;4204;43.004;23.052;2023-11-18T05:47:31;93189.38;;;3.53;100.00
8334;BME280;4204;43.004;23.052;2023-11-18T05:50:02;93193.78;;;3.57;100.00
8334;BME280;4204;43.004;23.052;2023-11-18T05:52:31;93190.56;;;3.42;100.00
8334;BME280;4204;43.004;23.052;2023-11-18T05:55:00;93188.16;;;3.45;100.00
8334;BME280;4204;43.004;23.052;2023-11-18T05:57:28;93184.81;;;3.40;100.00
8334;BME280;4204;43.004;23.052;2023-11-18T05:59:56;93173.25;;;3.41;100.00
8334;BME280;4204;43.004;23.052;2023-11-18T06:02:24;93176.00;;;3.31;100.00
8334;BME280;4204;43.004;23.052;2023-11-18T06:04:52;93173.31;;;3.36;100.00
8334;BME280;4204;43.004;23.052;2023-11-18T06:07:23;93170.19;;;3.34;100.00
8334;BME280;4204;43.004;23.052;2023-11-18T06:09:51;93179.41;;;3.31;100.00
8334;BME280;4204;43.004;23.052;2023-11-18T06:12:19;93170.81;;;3.25;100.00
8334;BME280;4204;43.004;23.052;2023-11-18T06:14:46;93175.66;;;3.18;100.00
8334;BME280;4204;43.004;23.052;2023-11-18T06:17:15;93183.75;;;3.22;100.00
8334;BME280;4204;43.004;23.052;2023-11-18T06:19:42;93188.16;;;3.26;100.00
8334;BME280;4204;43.004;23.052;2023-11-18T06:22:12;93189.91;;;3.31;100.00
8334;BME280;4204;43.004;23.052;2023-11-18T06:24:41;93200.88;;;3.38;100.00
8334;BME280;4204;43.004;23.052;2023-11-18T06:27:09;93205.97;;;3.29;100.00
8334;BME280;4204;43.004;23.052;2023-11-18T06:29:36;93204.13;;;3.30;100.00
8334;BME280;4204;43.004;23.052;2023-11-18T06:32:04;93203.59;;;3.33;100.00
8334;BME280;4204;43.004;23.052;2023-11-18T06:34:34;93206.75;;;3.30;100.00
8334;BME280;4204;43.004;23.052;2023-11-18T06:37:02;93204.13;;;3.30;100.00
8334;BME280;4204;43.004;23.052;2023-11-18T06:39:31;93188.78;;;3.18;100.00
8334;BME280;4204;43.004;23.052;2023-11-18T06:42:03;93212.06;;;3.25;100.00
8334;BME280;4204;43.004;23.052;2023-11-18T06:44:50;93217.81;;;3.27;100.00
8334;BME280;4204;43.004;23.052;2023-11-18T06:47:18;93215.78;;;3.24;100.00
8334;BME280;4204;43.004;23.052;2023-11-18T06:49:46;93215.50;;;3.25;100.00
8334;BME280;4204;43.004;23.052;2023-11-18T06:52:14;93220.13;;;3.34;100.00
8334;BME280;4204;43.004;23.052;2023-11-18T06:54:42;93209.75;;;3.42;100.00
8334;BME280;4204;43.004;23.052;2023-11-18T06:57:11;93212.34;;;3.47;100.00
8334;BME280;4204;43.004;23.052;2023-11-18T06:59:39;93216.09;;;3.41;100.00
8334;BME280;4204;43.004;23.052;2023-11-18T07:02:07;93216.44;;;3.35;100.00
8334;BME280;4204;43.004;23.052;2023-11-18T07:04:36;93212.56;;;3.27;100.00
8334;BME280;4204;43.004;23.052;2023-11-18T07:07:04;93226.63;;;3.17;100.00
8334;BME280;4204;43.004;23.052;2023-11-18T07:09:35;93236.94;;;3.14;100.00
8334;BME280;4204;43.004;23.052;2023-11-18T07:12:03;93231.03;;;3.22;100.00
8334;BME280;4204;43.004;23.052;2023-11-18T07:14:33;93226.44;;;3.33;100.00
8334;BME280;4204;43.004;23.052;2023-11-18T07:17:01;93236.97;;;3.33;100.00
8334;BME280;4204;43.004;23.052;2023-11-18T07:19:31;93216.69;;;3.14;100.00
8334;BME280;4204;43.004;23.052;2023-11-18T07:21:59;93215.75;;;3.05;100.00
8334;BME280;4204;43.004;23.052;2023-11-18T07:24:28;93237.13;;;3.17;100.00
8334;BME280;4204;43.004;23.052;2023-11-18T07:26:56;93234.78;;;3.16;100.00
8334;BME280;4204;43.004;23.052;2023-11-18T07:29:26;93245.84;;;3.13;100.00
8334;BME280;4204;43.004;23.052;2023-11-18T07:31:55;93233.88;;;3.25;100.00
8334;BME280;4204;43.004;23.052;2023-11-18T07:34:23;93225.63;;;3.13;100.00
8334;BME280;4204;43.004;23.052;2023-11-18T07:36:52;93234.78;;;3.16;100.00
8334;BME280;4204;43.004;23.052;2023-11-18T07:39:22;93242.28;;;3.04;100.00
8334;BME280;4204;43.004;23.052;2023-11-18T07:42:03;93234.78;;;2.92;100.00
8334;BME280;4204;43.004;23.052;2023-11-18T07:44:31;93239.72;;;2.99;100.00
8334;BME280;4204;43.004;23.052;2023-11-18T07:47:01;93227.69;;;3.16;100.00
8334;BME280;4204;43.004;23.052;2023-11-18T07:49:30;93236.25;;;3.03;100.00
8334;BME280;4204;43.004;23.052;2023-11-18T07:51:58;93245.44;;;3.06;100.00
8334;BME280;4204;43.004;23.052;2023-11-18T07:54:26;93235.13;;;3.09;100.00
8334;BME280;4204;43.004;23.052;2023-11-18T07:56:54;93235.13;;;3.09;100.00
8334;BME280;4204;43.004;23.052;2023-11-18T07:59:22;93239.88;;;3.07;100.00
8334;BME280;4204;43.004;23.052;2023-11-18T08:01:50;93233.97;;;2.97;100.00
8334;BME280;4204;43.004;23.052;2023-11-18T08:04:25;93242.06;;;3.00;100.00
8334;BME280;4204;43.004;23.052;2023-11-18T08:06:53;93233.06;;;3.06;100.00
8334;BME280;4204;43.004;23.052;2023-11-18T08:09:23;93234.56;;;3.12;100.00
8334;BME280;4204;43.004;23.052;2023-11-18T08:11:52;93240.22;;;3.01;100.00
8334;BME280;4204;43.004;23.052;2023-11-18T08:14:22;93241.19;;;3.10;100.00
8334;BME280;4204;43.004;23.052;2023-11-18T08:16:49;93243.72;;;3.15;100.00
8334;BME280;4204;43.004;23.052;2023-11-18T08:19:22;93240.72;;;3.26;100.00
8334;BME280;4204;43.004;23.052;2023-11-18T08:21:50;93246.34;;;3.15;100.00
8334;BME280;4204;43.004;23.052;2023-11-18T08:24:18;93254.25;;;3.15;100.00
8334;BME280;4204;43.004;23.052;2023-11-18T08:26:48;93252.44;;;3.10;100.00
8334;BME280;4204;43.004;23.052;2023-11-18T08:29:16;93257.19;;;3.08;100.00
8334;BME280;4204;43.004;23.052;2023-11-18T08:31:45;93256.59;;;3.16;100.00
8334;BME280;4204;43.004;23.052;2023-11-18T08:34:14;93259.50;;;3.15;100.00
8334;BME280;4204;43.004;23.052;2023-11-18T08:36:46;93261.41;;;3.09;100.00
8334;BME280;4204;43.004;23.052;2023-11-18T08:39:14;93270.19;;;3.00;100.00
8334;BME280;4204;43.004;23.052;2023-11-18T08:41:42;93271.53;;;2.97;100.00
8334;BME280;4204;43.004;23.052;2023-11-18T08:44:12;93268.38;;;2.95;100.00
8334;BME280;4204;43.004;23.052;2023-11-18T08:46:41;93286.28;;;2.93;100.00
8334;BME280;4204;43.004;23.052;2023-11-18T08:49:10;93287.78;;;2.99;100.00
8334;BME280;4204;43.004;23.052;2023-11-18T08:51:38;93289.34;;;3.00;100.00
8334;BME280;4204;43.004;23.052;2023-11-18T08:54:09;93282.56;;;2.94;100.00
8334;BME280;4204;43.004;23.052;2023-11-18T08:56:48;93276.03;;;2.92;100.00
8334;BME280;4204;43.004;23.052;2023-11-18T08:59:18;93272.06;;;2.94;100.00
8334;BME280;4204;43.004;23.052;2023-11-18T09:01:51;93273.69;;;2.90;100.00
8334;BME280;4204;43.004;23.052;2023-11-18T09:04:22;93264.75;;;2.91;100.00
8334;BME280;4204;43.004;23.052;2023-11-18T09:06:51;93270.91;;;3.05;100.00
8334;BME280;4204;43.004;23.052;2023-11-18T09:09:21;93271.41;;;3.07;100.00
8334;BME280;4204;43.004;23.052;2023-11-18T09:11:54;93268.31;;;3.00;100.00
8334;BME280;4204;43.004;23.052;2023-11-18T09:14:23;93274.19;;;2.92;100.00
8334;BME280;4204;43.004;23.052;2023-11-18T09:16:52;93273.31;;;3.02;100.00
8334;BME280;4204;43.004;23.052;2023-11-18T09:19:21;93261.63;;;2.89;100.00
8334;BME280;4204;43.004;23.052;2023-11-18T09:21:49;93268.66;;;2.94;100.00
8334;BME280;4204;43.004;23.052;2023-11-18T09:24:18;93265.25;;;2.93;100.00
8334;BME280;4204;43.004;23.052;2023-11-18T09:26:48;93258.38;;;2.97;100.00
8334;BME280;4204;43.004;23.052;2023-11-18T09:29:16;93260.72;;;2.99;100.00
8334;BME280;4204;43.004;23.052;2023-11-18T09:31:46;93256.88;;;2.91;100.00
8334;BME280;4204;43.004;23.052;2023-11-18T09:34:15;93262.38;;;2.90;100.00
8334;BME280;4204;43.004;23.052;2023-11-18T09:36:43;93252.88;;;2.94;100.00
8334;BME280;4204;43.004;23.052;2023-11-18T09:39:11;93255.94;;;3.06;100.00
8334;BME280;4204;43.004;23.052;2023-11-18T09:41:57;93263.91;;;3.19;100.00
8334;BME280;4204;43.004;23.052;2023-11-18T09:44:28;93259.50;;;3.15;100.00
8334;BME280;4204;43.004;23.052;2023-11-18T09:47:00;93257.03;;;3.23;100.00
8334;BME280;4204;43.004;23.052;2023-11-18T09:49:40;93260.56;;;3.14;100.00
8334;BME280;4204;43.004;23.052;2023-11-18T09:52:15;93250.91;;;3.09;100.00
8334;BME280;4204;43.004;23.052;2023-11-18T09:54:50;93259.28;;;3.11;100.00
8334;BME280;4204;43.004;23.052;2023-11-18T09:57:26;93254.97;;;3.20;100.00
8334;BME280;4204;43.004;23.052;2023-11-18T10:00:01;93257.94;;;3.14;100.00
8334;BME280;4204;43.004;23.052;2023-11-18T10:02:47;93258.88;;;2.99;100.00
8334;BME280;4204;43.004;23.052;2023-11-18T10:05:17;93255.44;;;3.04;100.00
8334;BME280;4204;43.004;23.052;2023-11-18T10:07:47;93259.81;;;3.08;100.00
8334;BME280;4204;43.004;23.052;2023-11-18T10:10:15;93242.72;;;3.11;100.00
8334;BME280;4204;43.004;23.052;2023-11-18T10:12:45;93255.81;;;3.16;100.00
8334;BME280;4204;43.004;23.052;2023-11-18T10:15:20;93245.63;;;3.09;100.00
8334;BME280;4204;43.004;23.052;2023-11-18T10:17:51;93248.25;;;3.09;100.00
8334;BME280;4204;43.004;23.052;2023-11-18T10:20:43;93231.09;;;3.17;100.00
8334;BME280;4204;43.004;23.052;2023-11-18T10:23:13;93237.94;;;3.18;100.00
8334;BME280;4204;43.004;23.052;2023-11-18T10:25:45;93229.66;;;3.06;100.00
8334;BME280;4204;43.004;23.052;2023-11-18T10:28:25;93236.19;;;3.08;100.00
8334;BME280;4204;43.004;23.052;2023-11-18T10:30:55;93227.88;;;3.01;100.00
8334;BME280;4204;43.004;23.052;2023-11-18T10:33:25;93230.00;;;2.99;100.00
8334;BME280;4204;43.004;23.052;2023-11-18T10:35:57;93222.16;;;2.94;100.00
8334;BME280;4204;43.004;23.052;2023-11-18T10:38:30;93223.63;;;3.05;100.00
8334;BME280;4204;43.004;23.052;2023-11-18T10:40:58;93221.28;;;3.04;100.00
8334;BME280;4204;43.004;23.052;2023-11-18T10:43:28;93214.94;;;3.05;100.00
8334;BME280;4204;43.004;23.052;2023-11-18T10:46:06;93232.50;;;3.09;100.00
8334;BME280;4204;43.004;23.052;2023-11-18T10:48:39;93233.56;;;3.08;100.00
8334;BME280;4204;43.004;23.052;2023-11-18T10:51:10;93224.84;;;3.13;100.00
8334;BME280;4204;43.004;23.052;2023-11-18T10:53:53;93213.63;;;3.07;100.00
8334;BME280;4204;43.004;23.052;2023-11-18T10:56:25;93239.97;;;3.21;100.00
8334;BME280;4204;43.004;23.052;2023-11-18T10:58:58;93238.13;;;3.21;100.00
8334;BME280;4204;43.004;23.052;2023-11-18T11:01:29;93219.81;;;3.16;100.00
8334;BME280;4204;43.004;23.052;2023-11-18T11:03:58;93215.56;;;3.20;100.00
8334;BME280;4204;43.004;23.052;2023-11-18T11:06:27;93208.59;;;3.29;100.00
8334;BME280;4204;43.004;23.052;2023-11-18T11:08:57;93202.84;;;3.27;100.00
8334;BME280;4204;43.004;23.052;2023-11-18T11:11:38;93215.94;;;3.33;100.00
8334;BME280;4204;43.004;23.052;2023-11-18T11:14:09;93206.22;;;3.33;100.00
8334;BME280;4204;43.004;23.052;2023-11-18T11:16:41;93190.28;;;3.24;100.00
8334;BME280;4204;43.004;23.052;2023-11-18T11:19:23;93209.34;;;3.54;100.00
8334;BME280;4204;43.004;23.052;2023-11-18T11:21:59;93211.75;;;3.50;100.00
8334;BME280;4204;43.004;23.052;2023-11-18T11:27:27;93198.69;;;3.64;100.00
8334;BME280;4204;43.004;23.052;2023-11-18T11:30:13;93209.47;;;3.62;100.00
8334;BME280;4204;43.004;23.052;2023-11-18T11:32:47;93214.53;;;3.59;100.00
8334;BME280;4204;43.004;23.052;2023-11-18T11:35:22;93216.75;;;3.70;100.00
8334;BME280;4204;43.004;23.052;2023-11-18T11:37:52;93215.81;;;3.61;100.00
8334;BME280;4204;43.004;23.052;2023-11-18T11:40:30;93214.22;;;3.60;100.00
8334;BME280;4204;43.004;23.052;2023-11-18T11:42:58;93219.22;;;3.62;100.00
8334;BME280;4204;43.004;23.052;2023-11-18T11:45:33;93217.25;;;3.72;100.00
8334;BME280;4204;43.004;23.052;2023-11-18T11:48:04;93221.63;;;3.77;100.00
8334;BME280;4204;43.004;23.052;2023-11-18T11:50:55;93215.03;;;3.79;100.00
8334;BME280;4204;43.004;23.052;2023-11-18T11:53:42;93240.03;;;3.77;100.00
8334;BME280;4204;43.004;23.052;2023-11-18T11:56:12;93233.53;;;3.74;100.00
8334;BME280;4204;43.004;23.052;2023-11-18T11:58:46;93217.25;;;3.54;100.00
8334;BME280;4204;43.004;23.052;2023-11-18T12:01:35;93226.69;;;3.73;100.00
8334;BME280;4204;43.004;23.052;2023-11-18T12:04:04;93236.06;;;3.61;100.00
8334;BME280;4204;43.004;23.052;2023-11-18T12:06:47;93217.75;;;3.56;100.00
8334;BME280;4204;43.004;23.052;2023-11-18T12:09:20;93214.72;;;3.62;100.00
8334;BME280;4204;43.004;23.052;2023-11-18T12:11:48;93226.47;;;3.70;100.00
8334;BME280;4204;43.004;23.052;2023-11-18T12:14:17;93228.59;;;3.68;100.00
8334;BME280;4204;43.004;23.052;2023-11-18T12:17:07;93232.53;;;3.70;100.00
8334;BME280;4204;43.004;23.052;2023-11-18T12:19:36;93230.09;;;3.74;100.00
8334;BME280;4204;43.004;23.052;2023-11-18T12:23:02;93246.16;;;3.72;100.00
8334;BME280;4204;43.004;23.052;2023-11-18T12:25:37;93247.16;;;3.76;100.00
8334;BME280;4204;43.004;23.052;2023-11-18T12:28:09;93247.72;;;3.73;100.00
8334;BME280;4204;43.004;23.052;2023-11-18T12:30:38;93234.13;;;3.66;100.00
8334;BME280;4204;43.004;23.052;2023-11-18T12:33:11;93235.28;;;3.79;100.00
8334;BME280;4204;43.004;23.052;2023-11-18T12:39:13;93253.97;;;3.77;100.00
8334;BME280;4204;43.004;23.052;2023-11-18T12:41:55;93256.69;;;3.91;100.00
8334;BME280;4204;43.004;23.052;2023-11-18T12:44:36;93257.59;;;3.81;100.00
8334;BME280;4204;43.004;23.052;2023-11-18T12:47:06;93257.19;;;3.74;100.00
8334;BME280;4204;43.004;23.052;2023-11-18T12:49:42;93259.09;;;3.69;100.00
8334;BME280;4204;43.004;23.052;2023-11-18T12:52:11;93259.44;;;3.81;100.00
8334;BME280;4204;43.004;23.052;2023-11-18T12:54:41;93255.59;;;3.73;100.00
8334;BME280;4204;43.004;23.052;2023-11-18T12:57:10;93268.41;;;3.80;100.00
8334;BME280;4204;43.004;23.052;2023-11-18T12:59:41;93270.03;;;3.76;100.00
8334;BME280;4204;43.004;23.052;2023-11-18T13:02:10;93262.28;;;3.66;100.00
8334;BME280;4204;43.004;23.052;2023-11-18T13:04:46;93265.28;;;3.59;100.00
8334;BME280;4204;43.004;23.052;2023-11-18T13:07:16;93262.94;;;3.58;100.00
8334;BME280;4204;43.004;23.052;2023-11-18T13:09:45;93269.19;;;3.62;100.00
8334;BME280;4204;43.004;23.052;2023-11-18T13:12:14;93263.63;;;3.63;100.00
8334;BME280;4204;43.004;23.052;2023-11-18T13:14:44;93275.84;;;3.73;100.00
8334;BME280;4204;43.004;23.052;2023-11-18T13:17:13;93272.88;;;3.79;100.00
8334;BME280;4204;43.004;23.052;2023-11-18T13:19:43;93283.13;;;3.81;100.00
8334;BME280;4204;43.004;23.052;2023-11-18T13:22:14;93280.63;;;3.89;100.00
8334;BME280;4204;43.004;23.052;2023-11-18T13:24:46;93279.44;;;3.82;100.00
8334;BME280;4204;43.004;23.052;2023-11-18T13:27:19;93286.63;;;3.76;100.00
8334;BME280;4204;43.004;23.052;2023-11-18T13:29:48;93297.41;;;3.75;100.00
8334;BME280;4204;43.004;23.052;2023-11-18T13:32:17;93305.78;;;3.77;100.00